createdAt,value
2023-03-03T00:01:07.316Z,-0.09
2023-03-03T00:03:34.504Z,-0.11
2023-03-03T00:06:05.013Z,-0.14
2023-03-03T00:08:32.896Z,-0.15
2023-03-03T00:11:01.247Z,-0.14
2023-03-03T00:13:29.034Z,-0.10
2023-03-03T00:16:24.406Z,-0.07
2023-03-03T00:18:52.536Z,-0.07
2023-03-03T00:21:43.902Z,-0.07
2023-03-03T00:24:21.932Z,-0.10
2023-03-03T00:26:57.679Z,-0.18
2023-03-03T00:29:40.986Z,-0.21
2023-03-03T00:32:17.224Z,-0.27
2023-03-03T00:34:45.260Z,-0.30
2023-03-03T00:37:35.930Z,-0.30
2023-03-03T00:40:24.936Z,-0.33
2023-03-03T00:43:00.137Z,-0.35
2023-03-03T00:45:31.985Z,-0.36
2023-03-03T00:48:08.106Z,-0.38
2023-03-03T00:50:36.124Z,-0.38
2023-03-03T00:53:06.642Z,-0.37
2023-03-03T00:55:35.486Z,-0.39
2023-03-03T00:58:03.418Z,-0.36
2023-03-03T01:00:36.810Z,-0.32
2023-03-03T01:03:14.801Z,-0.35
2023-03-03T01:05:42.733Z,-0.38
2023-03-03T01:08:10.108Z,-0.38
2023-03-03T01:10:42.550Z,-0.40
2023-03-03T01:13:10.438Z,-0.42
2023-03-03T01:15:39.518Z,-0.46
2023-03-03T01:18:08.010Z,-0.51
2023-03-03T01:20:35.249Z,-0.51
2023-03-03T01:23:02.555Z,-0.53
2023-03-03T01:25:29.855Z,-0.56
2023-03-03T01:27:57.980Z,-0.51
2023-03-03T01:30:25.527Z,-0.49
2023-03-03T01:32:53.245Z,-0.48
2023-03-03T01:35:21.432Z,-0.48
2023-03-03T01:37:48.693Z,-0.47
2023-03-03T01:40:21.646Z,-0.48
2023-03-03T01:42:49.435Z,-0.53
2023-03-03T01:45:26.238Z,-0.54
2023-03-03T01:48:07.260Z,-0.55
2023-03-03T01:50:46.065Z,-0.57
2023-03-03T01:53:28.670Z,-0.56
2023-03-03T01:55:56.224Z,-0.55
2023-03-03T01:58:36.558Z,-0.58
2023-03-03T02:01:09.645Z,-0.61
2023-03-03T02:03:36.790Z,-0.64
2023-03-03T02:06:07.936Z,-0.67
2023-03-03T02:09:04.805Z,-0.68
2023-03-03T02:11:35.327Z,-0.72
2023-03-03T02:14:02.738Z,-0.74
2023-03-03T02:16:30.425Z,-0.79
2023-03-03T02:18:57.745Z,-0.80
2023-03-03T02:21:29.104Z,-0.82
2023-03-03T02:24:05.293Z,-0.85
2023-03-03T02:26:40.856Z,-0.86
2023-03-03T02:29:11.423Z,-0.88
2023-03-03T02:31:40.960Z,-0.86
2023-03-03T02:34:08.241Z,-0.83
2023-03-03T02:36:38.260Z,-0.85
2023-03-03T02:39:08.954Z,-0.84
2023-03-03T02:41:57.592Z,-0.84
2023-03-03T02:44:32.953Z,-0.81
2023-03-03T02:47:01.007Z,-0.80
2023-03-03T02:49:32.533Z,-0.74
2023-03-03T02:52:01.228Z,-0.69
2023-03-03T02:54:33.311Z,-0.69
2023-03-03T02:57:03.734Z,-0.63
2023-03-03T02:59:31.340Z,-0.60
2023-03-03T03:02:07.775Z,-0.63
2023-03-03T03:04:35.405Z,-0.64
2023-03-03T03:07:03.812Z,-0.62
2023-03-03T03:09:33.234Z,-0.62
2023-03-03T03:12:02.789Z,-0.54
2023-03-03T03:14:33.316Z,-0.45
2023-03-03T03:17:00.674Z,-0.33
2023-03-03T03:19:29.512Z,-0.21
2023-03-03T03:22:00.255Z,-0.11
2023-03-03T03:24:28.460Z,-0.01
2023-03-03T03:27:00.985Z,0.08
2023-03-03T03:29:28.716Z,0.20
2023-03-03T03:31:56.305Z,0.34
2023-03-03T03:34:23.412Z,0.45
2023-03-03T03:36:52.606Z,0.54
2023-03-03T03:39:22.301Z,0.64
2023-03-03T03:41:51.511Z,0.71
2023-03-03T03:44:18.678Z,0.81
2023-03-03T03:46:45.869Z,0.87
2023-03-03T03:49:13.110Z,0.94
2023-03-03T03:51:42.255Z,1.03
2023-03-03T03:54:13.116Z,1.11
2023-03-03T03:56:41.302Z,1.18
2023-03-03T03:59:09.412Z,1.26
2023-03-03T04:01:38.490Z,1.31
2023-03-03T04:04:05.912Z,1.36
2023-03-03T04:06:34.656Z,1.41
2023-03-03T04:09:02.184Z,1.50
2023-03-03T04:11:30.676Z,1.57
2023-03-03T04:13:57.999Z,1.65
2023-03-03T04:16:25.880Z,1.75
2023-03-03T04:18:53.130Z,1.76
2023-03-03T04:21:21.790Z,1.84
2023-03-03T04:23:51.457Z,1.90
2023-03-03T04:26:19.412Z,1.98
2023-03-03T04:28:47.718Z,2.03
2023-03-03T04:31:15.120Z,2.10
2023-03-03T04:33:42.316Z,2.16
2023-03-03T04:36:09.524Z,2.19
2023-03-03T04:38:38.220Z,2.24
2023-03-03T04:41:05.924Z,2.29
2023-03-03T04:43:37.043Z,2.32
2023-03-03T04:46:06.009Z,2.34
2023-03-03T04:48:33.856Z,2.35
2023-03-03T04:51:01.125Z,2.42
2023-03-03T04:53:28.486Z,2.44
2023-03-03T04:55:55.766Z,2.51
2023-03-03T04:58:23.648Z,2.45
2023-03-03T05:00:57.145Z,2.49
2023-03-03T05:03:27.189Z,2.50
2023-03-03T05:05:54.726Z,2.55
2023-03-03T05:08:22.013Z,2.59
2023-03-03T05:10:53.348Z,2.56
2023-03-03T05:13:20.785Z,2.62
2023-03-03T05:15:53.233Z,2.66
2023-03-03T05:18:20.875Z,2.71
2023-03-03T05:20:48.918Z,2.75
2023-03-03T05:23:16.610Z,2.79
2023-03-03T05:25:44.254Z,2.83
2023-03-03T05:28:11.807Z,2.86
2023-03-03T05:30:39.099Z,2.87
2023-03-03T05:33:07.431Z,2.89
2023-03-03T05:35:35.225Z,2.90
2023-03-03T05:38:05.395Z,2.84
2023-03-03T05:40:32.784Z,2.86
2023-03-03T05:42:59.969Z,2.86
2023-03-03T05:45:27.217Z,2.87
2023-03-03T05:47:54.794Z,2.93
2023-03-03T05:50:23.609Z,2.97
2023-03-03T05:52:52.201Z,3.01
2023-03-03T05:55:20.460Z,3.02
2023-03-03T05:57:47.686Z,3.05
2023-03-03T06:00:16.987Z,3.08
2023-03-03T06:02:44.439Z,3.11
2023-03-03T06:05:12.178Z,3.12
2023-03-03T06:07:39.829Z,3.13
2023-03-03T06:10:08.003Z,2.85
2023-03-03T06:12:39.336Z,2.97
2023-03-03T06:15:07.594Z,3.06
2023-03-03T06:17:34.879Z,3.03
2023-03-03T06:20:02.317Z,3.10
2023-03-03T06:22:29.574Z,3.05
2023-03-03T06:24:56.740Z,3.05
2023-03-03T06:27:23.983Z,3.12
2023-03-03T06:29:51.065Z,3.15
2023-03-03T06:32:18.719Z,3.18
2023-03-03T06:34:45.856Z,3.16
2023-03-03T06:37:12.958Z,3.24
2023-03-03T06:39:40.110Z,3.27
2023-03-03T06:42:07.435Z,3.33
2023-03-03T06:44:34.576Z,3.18
2023-03-03T06:47:02.179Z,3.27
2023-03-03T06:49:29.384Z,3.24
2023-03-03T06:51:58.673Z,3.23
2023-03-03T06:54:30.928Z,3.33
2023-03-03T06:57:16.728Z,3.43
2023-03-03T06:59:44.067Z,3.46
2023-03-03T07:02:18.250Z,3.56
2023-03-03T07:04:47.458Z,3.62
2023-03-03T07:07:21.697Z,3.69
2023-03-03T07:09:53.428Z,3.76
2023-03-03T07:12:23.384Z,3.75
2023-03-03T07:15:02.230Z,3.81
2023-03-03T07:17:31.482Z,3.89
2023-03-03T07:19:58.500Z,3.95
2023-03-03T07:22:30.662Z,4.01
2023-03-03T07:25:04.863Z,3.99
2023-03-03T07:27:32.036Z,4.08
2023-03-03T07:30:37.903Z,4.17
2023-03-03T07:33:15.591Z,4.29
2023-03-03T07:35:45.243Z,4.40
2023-03-03T07:38:25.881Z,4.48
2023-03-03T07:40:55.548Z,4.53
2023-03-03T07:43:55.327Z,4.74
2023-03-03T07:46:41.831Z,4.96
2023-03-03T07:49:36.881Z,5.20
2023-03-03T07:52:21.541Z,5.46
2023-03-03T07:54:48.685Z,5.78
2023-03-03T07:57:23.271Z,5.70
2023-03-03T07:59:53.756Z,5.92
2023-03-03T08:02:45.987Z,6.12
2023-03-03T08:05:28.794Z,6.42
2023-03-03T08:08:11.478Z,6.70
2023-03-03T08:10:51.495Z,6.94
2023-03-03T08:13:20.210Z,7.18
2023-03-03T08:15:52.508Z,7.39
2023-03-03T08:18:28.571Z,7.62
2023-03-03T08:20:58.242Z,7.81
2023-03-03T08:23:25.525Z,7.97
2023-03-03T08:25:53.382Z,8.19
2023-03-03T08:28:21.910Z,8.28
2023-03-03T08:30:49.969Z,8.52
2023-03-03T08:33:17.911Z,8.61
2023-03-03T08:35:46.257Z,8.81
2023-03-03T08:38:16.167Z,8.99
2023-03-03T08:40:43.817Z,9.05
2023-03-03T08:43:17.268Z,9.14
2023-03-03T08:45:52.433Z,9.02
2023-03-03T08:48:20.923Z,9.06
2023-03-03T08:50:48.177Z,9.10
2023-03-03T08:53:15.980Z,9.12
2023-03-03T08:55:43.565Z,9.18
2023-03-03T08:58:10.824Z,9.24
2023-03-03T09:00:38.680Z,9.24
2023-03-03T09:03:07.634Z,9.36
2023-03-03T09:05:36.892Z,9.39
2023-03-03T09:08:05.021Z,9.53
2023-03-03T09:10:32.493Z,9.58
2023-03-03T09:13:05.727Z,9.58
2023-03-03T09:15:37.898Z,9.63
2023-03-03T09:18:44.384Z,9.73
2023-03-03T09:21:22.916Z,9.83
2023-03-03T09:23:55.304Z,9.92
2023-03-03T09:26:27.120Z,9.92
2023-03-03T09:29:14.111Z,9.94
2023-03-03T09:31:45.595Z,10.00
2023-03-03T09:34:34.479Z,10.28
2023-03-03T09:37:01.912Z,10.38
2023-03-03T09:39:31.752Z,10.50
2023-03-03T09:42:26.727Z,10.61
2023-03-03T09:45:18.278Z,10.72
2023-03-03T09:48:24.178Z,10.89
2023-03-03T09:51:18.932Z,11.00
2023-03-03T09:54:14.169Z,11.12
2023-03-03T09:56:54.877Z,10.65
2023-03-03T09:59:45.351Z,10.98
2023-03-03T10:02:21.660Z,11.16
2023-03-03T10:05:18.562Z,11.30
2023-03-03T10:08:17.942Z,11.30
2023-03-03T10:11:14.164Z,11.34
2023-03-03T10:13:47.447Z,11.51
2023-03-03T10:16:45.595Z,11.17
2023-03-03T10:20:00.970Z,11.27
2023-03-03T10:22:51.060Z,11.50
2023-03-03T10:25:35.597Z,11.26
2023-03-03T10:28:10.407Z,10.77
2023-03-03T10:31:04.856Z,10.49
2023-03-03T10:33:47.339Z,10.94
2023-03-03T10:36:17.774Z,11.01
2023-03-03T10:38:44.985Z,11.22
2023-03-03T10:41:44.465Z,11.37
2023-03-03T10:44:26.736Z,11.66
2023-03-03T10:47:04.197Z,11.95
2023-03-03T10:49:57.096Z,12.23
2023-03-03T10:53:03.378Z,12.45
2023-03-03T10:55:50.504Z,12.58
2023-03-03T10:58:42.899Z,12.67
2023-03-03T11:01:35.572Z,12.66
2023-03-03T11:04:05.793Z,12.55
2023-03-03T11:07:05.956Z,12.57
2023-03-03T11:09:35.638Z,12.61
2023-03-03T11:12:22.666Z,12.69
2023-03-03T11:15:33.876Z,12.88
2023-03-03T11:18:08.831Z,13.08
2023-03-03T11:20:54.581Z,12.72
2023-03-03T11:23:30.741Z,12.60
2023-03-03T11:26:10.462Z,12.24
2023-03-03T11:29:15.536Z,11.73
2023-03-03T11:31:49.681Z,11.08
2023-03-03T11:34:48.170Z,11.23
2023-03-03T11:37:27.042Z,10.98
2023-03-03T11:39:58.070Z,11.03
2023-03-03T11:42:47.718Z,11.45
2023-03-03T11:45:20.377Z,11.45
2023-03-03T11:47:50.112Z,11.16
2023-03-03T11:50:26.620Z,10.94
2023-03-03T11:53:15.178Z,10.57
2023-03-03T11:55:46.224Z,10.30
2023-03-03T11:58:25.278Z,10.18
2023-03-03T12:01:15.609Z,10.18
2023-03-03T12:04:09.607Z,9.77
2023-03-03T12:07:12.958Z,10.17
2023-03-03T12:10:00.298Z,10.09
2023-03-03T12:12:37.251Z,10.16
2023-03-03T12:15:16.050Z,10.47
2023-03-03T12:17:54.955Z,10.69
2023-03-03T12:20:26.347Z,10.79
2023-03-03T12:23:35.048Z,11.00
2023-03-03T12:26:17.536Z,11.06
2023-03-03T12:29:25.396Z,11.09
2023-03-03T12:32:06.537Z,10.96
2023-03-03T12:35:15.728Z,10.84
2023-03-03T12:37:58.642Z,10.67
2023-03-03T12:40:32.627Z,10.51
2023-03-03T12:43:21.399Z,10.45
2023-03-03T12:46:29.941Z,10.20
2023-03-03T12:48:57.201Z,10.19
2023-03-03T12:51:47.213Z,10.07
2023-03-03T12:54:38.686Z,10.05
2023-03-03T12:57:21.710Z,9.99
2023-03-03T13:00:16.876Z,9.92
2023-03-03T13:03:10.180Z,9.85
2023-03-03T13:06:14.810Z,9.79
2023-03-03T13:09:04.310Z,9.67
2023-03-03T13:12:03.708Z,9.62
2023-03-03T13:14:51.351Z,9.50
2023-03-03T13:17:49.402Z,9.38
2023-03-03T13:20:38.744Z,9.36
2023-03-03T13:23:28.196Z,9.32
2023-03-03T13:26:39.917Z,9.31
2023-03-03T13:29:14.512Z,9.26
2023-03-03T13:31:50.007Z,9.25
2023-03-03T13:34:44.334Z,9.21
2023-03-03T13:37:32.470Z,9.16
2023-03-03T13:40:16.027Z,9.13
2023-03-03T13:42:52.671Z,9.10
2023-03-03T13:45:38.459Z,9.07
2023-03-03T13:48:28.026Z,9.08
2023-03-03T13:51:05.296Z,9.13
2023-03-03T13:53:35.254Z,9.17
2023-03-03T13:56:25.475Z,9.24
2023-03-03T13:58:57.991Z,9.34
2023-03-03T14:01:55.768Z,9.41
2023-03-03T14:05:03.679Z,9.44
2023-03-03T14:07:43.870Z,9.39
2023-03-03T14:10:33.969Z,9.45
2023-03-03T14:13:13.472Z,9.48
2023-03-03T14:15:49.491Z,9.47
2023-03-03T14:18:25.607Z,9.41
2023-03-03T14:21:00.185Z,9.38
2023-03-03T14:23:57.734Z,9.33
2023-03-03T14:26:25.441Z,9.31
2023-03-03T14:29:14.300Z,9.25
2023-03-03T14:31:43.834Z,9.16
2023-03-03T14:34:40.451Z,9.10
2023-03-03T14:37:30.353Z,9.00
2023-03-03T14:40:07.872Z,8.91
2023-03-03T14:42:40.953Z,8.82
2023-03-03T14:45:39.933Z,8.73
2023-03-03T14:48:19.875Z,8.67
2023-03-03T14:50:52.291Z,8.58
2023-03-03T14:53:19.475Z,8.55
2023-03-03T14:55:49.577Z,8.53
2023-03-03T14:58:41.232Z,8.48
2023-03-03T15:01:30.367Z,8.44
2023-03-03T15:03:57.566Z,8.42
2023-03-03T15:06:46.509Z,8.40
2023-03-03T15:09:49.077Z,8.40
2023-03-03T15:12:37.119Z,8.43
2023-03-03T15:15:10.128Z,8.47
2023-03-03T15:17:40.721Z,8.54
2023-03-03T15:20:22.397Z,8.60
2023-03-03T15:23:05.666Z,8.69
2023-03-03T15:26:13.102Z,8.83
2023-03-03T15:28:46.102Z,8.92
2023-03-03T15:31:45.812Z,9.04
2023-03-03T15:34:27.081Z,9.14
2023-03-03T15:37:00.207Z,9.22
2023-03-03T15:39:39.620Z,9.32
2023-03-03T15:42:14.913Z,9.38
2023-03-03T15:44:48.292Z,9.44
2023-03-03T15:47:33.249Z,9.49
2023-03-03T15:50:12.261Z,9.50
2023-03-03T15:53:27.721Z,9.43
2023-03-03T15:56:32.514Z,9.39
2023-03-03T15:59:27.283Z,9.32
2023-03-03T16:02:19.454Z,9.23
2023-03-03T16:05:01.593Z,9.11
2023-03-03T16:07:44.278Z,9.02
2023-03-03T16:10:34.966Z,8.92
2023-03-03T16:13:25.288Z,8.79
2023-03-03T16:16:16.709Z,8.71
2023-03-03T16:18:58.696Z,8.66
2023-03-03T16:21:31.639Z,8.61
2023-03-03T16:24:11.019Z,8.58
2023-03-03T16:26:58.478Z,8.55
2023-03-03T16:30:02.778Z,8.49
2023-03-03T16:32:43.022Z,8.46
2023-03-03T16:35:12.851Z,8.40
2023-03-03T16:38:02.505Z,8.33
2023-03-03T16:40:39.074Z,8.25
2023-03-03T16:43:14.922Z,8.18
2023-03-03T16:45:42.397Z,8.10
2023-03-03T16:48:42.200Z,7.99
2023-03-03T16:51:16.584Z,7.89
2023-03-03T16:53:52.182Z,7.77
2023-03-03T16:56:24.766Z,7.66
2023-03-03T16:59:11.747Z,7.55
2023-03-03T17:02:03.505Z,7.40
2023-03-03T17:04:44.024Z,7.24
2023-03-03T17:07:48.166Z,7.07
2023-03-03T17:10:37.989Z,6.91
2023-03-03T17:13:29.577Z,6.72
2023-03-03T17:16:05.878Z,6.55
2023-03-03T17:18:53.032Z,6.39
2023-03-03T17:21:32.752Z,6.25
2023-03-03T17:24:05.685Z,6.10
2023-03-03T17:26:50.654Z,5.96
2023-03-03T17:29:39.576Z,5.82
2023-03-03T17:32:24.945Z,5.70
2023-03-03T17:35:13.145Z,5.60
2023-03-03T17:38:18.835Z,5.48
2023-03-03T17:41:10.428Z,5.33
2023-03-03T17:43:49.757Z,5.23
2023-03-03T17:46:42.882Z,5.12
2023-03-03T17:49:32.256Z,5.01
2023-03-03T17:52:36.948Z,4.90
2023-03-03T17:55:40.691Z,4.80
2023-03-03T17:58:29.660Z,4.69
2023-03-03T18:01:25.769Z,4.58
2023-03-03T18:04:13.080Z,4.50
2023-03-03T18:06:54.493Z,4.40
2023-03-03T18:09:27.249Z,4.31
2023-03-03T18:11:57.140Z,4.24
2023-03-03T18:15:11.542Z,4.13
2023-03-03T18:17:47.862Z,4.11
2023-03-03T18:20:31.355Z,4.04
2023-03-03T18:23:18.519Z,3.97
2023-03-03T18:25:58.649Z,3.86
2023-03-03T18:29:05.952Z,3.77
2023-03-03T18:31:46.941Z,3.70
2023-03-03T18:34:38.340Z,3.66
2023-03-03T18:37:08.413Z,3.59
2023-03-03T18:39:50.455Z,3.54
2023-03-03T18:42:17.566Z,3.46
2023-03-03T18:44:45.472Z,3.36
2023-03-03T18:47:15.480Z,3.28
2023-03-03T18:50:14.695Z,3.19
2023-03-03T18:53:19.986Z,3.11
2023-03-03T18:55:51.768Z,3.02
2023-03-03T18:58:18.880Z,2.94
2023-03-03T19:01:00.902Z,2.87
2023-03-03T19:03:38.502Z,2.83
2023-03-03T19:06:08.826Z,2.76
2023-03-03T19:08:58.438Z,2.65
2023-03-03T19:11:37.814Z,2.60
2023-03-03T19:14:34.605Z,2.54
2023-03-03T19:17:23.581Z,2.49
2023-03-03T19:20:15.415Z,2.43
2023-03-03T19:22:49.519Z,2.40
2023-03-03T19:25:25.339Z,2.37
2023-03-03T19:28:17.920Z,2.35
2023-03-03T19:30:48.079Z,2.36
2023-03-03T19:33:31.156Z,2.39
2023-03-03T19:36:18.937Z,2.45
2023-03-03T19:39:04.066Z,2.48
2023-03-03T19:42:10.267Z,2.42
2023-03-03T19:44:50.057Z,2.35
2023-03-03T19:47:23.026Z,2.25
2023-03-03T19:50:01.032Z,2.19
2023-03-03T19:52:46.954Z,2.12
2023-03-03T19:55:21.948Z,2.05
2023-03-03T19:57:58.222Z,1.97
2023-03-03T20:00:44.056Z,1.90
2023-03-03T20:03:25.998Z,1.84
2023-03-03T20:06:17.040Z,1.78
2023-03-03T20:08:58.090Z,1.74
2023-03-03T20:11:46.454Z,1.70
2023-03-03T20:14:26.527Z,1.67
2023-03-03T20:16:58.341Z,1.65
2023-03-03T20:20:20.177Z,1.64
2023-03-03T20:22:57.260Z,1.69
2023-03-03T20:25:36.816Z,1.73
2023-03-03T20:28:28.628Z,1.74
2023-03-03T20:30:58.794Z,1.72
2023-03-03T20:33:31.881Z,1.72
2023-03-03T20:36:08.043Z,1.74
2023-03-03T20:38:43.321Z,1.75
2023-03-03T20:41:13.146Z,1.75
2023-03-03T20:44:08.067Z,1.74
2023-03-03T20:46:53.089Z,1.74
2023-03-03T20:49:48.105Z,1.72
2023-03-03T20:52:33.338Z,1.69
2023-03-03T20:55:03.110Z,1.64
2023-03-03T20:57:42.922Z,1.60
2023-03-03T21:00:28.972Z,1.58
2023-03-03T21:03:27.448Z,1.55
2023-03-03T21:06:02.548Z,1.54
2023-03-03T21:08:49.140Z,1.55
2023-03-03T21:11:19.761Z,1.52
2023-03-03T21:13:52.141Z,1.55
2023-03-03T21:16:23.019Z,1.61
2023-03-03T21:19:04.341Z,1.69
2023-03-03T21:21:35.842Z,1.68
2023-03-03T21:24:03.500Z,1.68
2023-03-03T21:26:46.140Z,1.73
2023-03-03T21:29:17.801Z,1.74
2023-03-03T21:31:56.910Z,1.79
2023-03-03T21:34:25.496Z,1.85
2023-03-03T21:36:54.516Z,1.92
2023-03-03T21:39:26.176Z,1.96
2023-03-03T21:42:00.504Z,1.93
2023-03-03T21:44:41.798Z,1.87
2023-03-03T21:47:11.695Z,1.83
2023-03-03T21:49:43.082Z,1.79
2023-03-03T21:52:11.007Z,1.75
2023-03-03T21:54:38.296Z,1.69
2023-03-03T21:57:05.569Z,1.64
2023-03-03T21:59:32.752Z,1.59
2023-03-03T22:02:00.038Z,1.56
2023-03-03T22:04:27.350Z,1.55
2023-03-03T22:06:54.875Z,1.63
2023-03-03T22:09:22.196Z,1.75
2023-03-03T22:11:49.746Z,1.80
2023-03-03T22:14:17.023Z,1.84
2023-03-03T22:16:44.141Z,1.89
2023-03-03T22:19:11.421Z,1.92
2023-03-03T22:21:39.744Z,1.94
2023-03-03T22:24:07.796Z,1.97
2023-03-03T22:26:35.454Z,1.97
2023-03-03T22:29:03.066Z,1.95
2023-03-03T22:31:30.219Z,1.90
2023-03-03T22:33:57.792Z,1.85
2023-03-03T22:36:24.935Z,1.79
2023-03-03T22:38:52.157Z,1.76
2023-03-03T22:41:19.324Z,1.73
2023-03-03T22:43:48.306Z,1.76
2023-03-03T22:46:15.576Z,1.75
2023-03-03T22:48:42.731Z,1.76
2023-03-03T22:51:09.795Z,1.73
2023-03-03T22:53:36.923Z,1.72
2023-03-03T22:56:04.232Z,1.76
2023-03-03T22:58:31.457Z,1.77
2023-03-03T23:00:58.647Z,1.76
2023-03-03T23:03:25.968Z,1.76
2023-03-03T23:05:53.358Z,1.75
2023-03-03T23:08:21.001Z,1.73
2023-03-03T23:10:48.605Z,1.71
2023-03-03T23:13:16.718Z,1.67
2023-03-03T23:15:44.251Z,1.67
2023-03-03T23:18:11.526Z,1.62
2023-03-03T23:20:38.694Z,1.54
2023-03-03T23:23:05.913Z,1.46
2023-03-03T23:25:34.784Z,1.40
2023-03-03T23:28:01.949Z,1.36
2023-03-03T23:30:29.090Z,1.30
2023-03-03T23:32:56.212Z,1.29
2023-03-03T23:35:23.542Z,1.26
2023-03-03T23:37:50.856Z,1.25
2023-03-03T23:40:18.413Z,1.20
2023-03-03T23:42:45.617Z,1.17
2023-03-03T23:45:13.414Z,1.11
2023-03-03T23:47:41.168Z,1.06
2023-03-03T23:50:10.115Z,1.00
2023-03-03T23:52:37.662Z,1.00
2023-03-03T23:55:05.809Z,0.97
2023-03-03T23:57:32.998Z,0.92
